To NAV CANADA Home Page Login to a new session Search on AWWS site Feedback and Comments Disclaimer Vers la page française équivalente Tips FAQ What's new on the site To the Forecasts and Observations / NOTAM section To "File a Flight Plan" website Publications and other links Update of the User's profile FIC Telephone Numbers My Weather Data Folder Route Weather Data Regional Weather Data Local Weather Data To the Forecasts and Observations / NOTAM section
Request Generated 06/26/2017 at 22:36:12 UTC . Weather information available at that time is displayed.

METAR/TAF

MOOSE JAW/AIR VICE MARSHAL C.M. MCEWEN/SK    

METAR CYMJ 262200Z 19012G17KT 15SM OVC210 28/06 A2990 RMK CI8 SLP129=
METAR CYMJ 262100Z 16016KT 15SM FEW120 BKN220 28/07 A2994 RMK AC1CI7 SLP143=
METAR CYMJ 262000Z 16009G16KT 15SM FEW120 BKN220 26/07 A2997 RMK AC1CI7 SLP158=

TAF CYMJ 261732Z 2618/2706 17010G20KT P6SM BKN250
FM270300 17010KT P6SM SCT100 BKN250
RMK NXT FCST BY 270000Z=
Your time UTC time
Weather data provided by Environment Canada and NAV CANADA